Four Corners Regional Airport
KFMN : rendu visible

Aérodrome :











RETROUVEZ-NOUS SUR...

 
LOGIN :

S'inscrire | Disclaimer

   EN    FR    IT 

 









Légende :    VFR   VFR Marginal   IFR   IFR Intensif   IFR Très Intensif
Visi : 
Plafond : 
>= 8 km
>= 3000ft
5 à 8 km
1000 à 3000 ft
1500m à 5 km
500 à 1000 ft
800 à 1500m
200 à 500 ft
< 800m
< 200 ft
Symboles :   Orages  Brouillard  Fortes neiges  Fortes précipitations  Vent > 20 kt






- Altitude de l'aérodrome : 5506 ft


KFMN - Four Corners Regional

DERNIER METAR :
  • 211553Z 09009KT 10SM BKN023 06/02 A2992 RMK AO2 SLP118 T00610022

METARs EXPIRÉS :
  • 211453Z 12006KT 10SM FEW046 BKN120 04/02 A2993 RMK AO2 SLP123 T00440022 53018
  • 211353Z 14007KT 10SM FEW012 BKN047 OVC100 05/03 A2991 RMK AO2 SLP115 T00500028

TAF KFMN
Valide du 21 à 12h jusqu'au 22 à 12h UTC


211138Z 2112/2212 11006KT P6SM OVC050
FM211400 13008KT P6SM BKN070
FM212200 24006KT P6SM VCSH BKN050



MET'MAP, la Météo Aéronautique d'un coup d'oeil ! - Copyright ORBIFLY Décembre 2007 - Disclaimer

ORBIFLY MET'MAP TEAM :

Programmation & Développement : Alexandra Zaïnal
Conception & Développement : Baudouin d'Aumeries
Co-Programmation & Développement : Marc-Olivier Méhu
Soutien technique & logistique : Manuel Goepfert

Contact : metmap@orbifly.com




SOURCES & CREDITS :

   NOAA       Earth
Advisory